Bismarck, ND (58503)

4:52 AM CST on February 07, 2016 (GMT -0600)
Rural North Bismarck, Harvest Grove Subdivsion | | Change Station
CLOSE
Current Station
Personal Weather Station
Location: Bismarck, ND
Elevation: 1900 ft
Nearby Weather Stations
Active Advisory: High Wind Warning

Elev 1900 ft 46.90 °N, 100.78 °W | Updated 13 seconds ago

Clear
Clear
33.9 °F
Feels Like 22 °F
N
22.0
Wind Variable Wind from WNW
Gusts 31.0 mph

Today
High -- | Low -- °F
--% Chance of Precip.
Yesterday
High -- | Low -- °F
Precip. -- in
Pressure 29.82 in
Visibility 10.0 miles
Clouds Clear
Windchill 22 °F
Dew Point 24 °F
Humidity 67%
Rainfall 0.00 in
Snow Depth Not available.
8:00 AM 5:54 PM
Waning Crescent, 2% visible
METAR KBIS 070952Z AUTO 28015G24KT 10SM CLR 03/M04 A2979 RMK AO2 PK WND 28030/0901 SLP096 T00331044
Pressure 29.82 in
Visibility 10.0 miles
Clouds Clear
Windchill 22 °F
Dew Point 24 °F
Humidity 67%
Rainfall 0.00 in
Snow Depth Not available.
8:00 AM 5:54 PM
Waning Crescent, 2% visible
METAR KBIS 070952Z AUTO 28015G24KT 10SM CLR 03/M04 A2979 RMK AO2 PK WND 28030/0901 SLP096 T00331044

10-Day Weather Forecast

Almanac

Astronomy

Feb. 07, 2016 Rise Set
Actual Time
Civil Twilight
Nautical Twilight
Astronomical Twilight
Moon
Length of Visible Light
Length of Day
Tomorrow will be .
, % of the Moon is Illuminated

Today's Extremes

State Highs State Lows

Community

WunderPhotos

Upload Photos

1,891,171 photos uploaded!

WunderBlog® & News

Nearby

Air Quality

  Air Quality AQ Index Pollutant
Not available.

Snow Depth

Station Depth Elevation

Earthquake Activity

City Distance Mag. Time & Date
Minimum magnitude displayed is 2.5.

Coastal Water Temperatures

Place Temperature

Stations

Nearby Weather Stations

Station Location Temp. Windchill Dew Point Humidity Wind Precip. Elev Updated Type
                   

Watches & Warnings

High Wind Warning
Issued: 2:43 AM CST Feb. 7, 2016 – National Weather Service

... High Wind Warning remains in effect until 6 am CST Monday...

* timing... through Sunday night.

* Winds... northwest winds gusting up to 65 mph.

* Impacts... travel will become hazardous over central North
Dakota. Snow and blowing snow may reduce visibilities on Sunday.

Precautionary/preparedness actions...

A High Wind Warning means a hazardous high wind event is expected
or occurring. Sustained wind speeds of at least 40 mph or gusts
of 58 mph or more can lead to property damage.



KS/waa